Time;durP1;ratioP1;P1;durP2;ratioP2;P2;SDS_P1;SDS_P2;PMS_P1;PMS_P2;Temp;Humidity;BMP_temperature;BMP_pressure;BME280_temperature;BME280_humidity;BME280_pressure;Samples;Min_cycle;Max_cycle;Signal;HPM_P1;HPM_P2
2022/02/13 00:01:54;;;;;;;15.60;5.50;;;;;;;1.07;100.00;101926.25;5286580;28;20011;-80
2022/02/13 00:04:25;;;;;;;16.35;5.97;;;;;;;1.05;100.00;101928.09;5286336;28;20023;-79
2022/02/13 00:06:56;;;;;;;16.58;5.88;;;;;;;0.96;100.00;101925.94;5285945;28;20110;-80
2022/02/13 00:09:28;;;;;;;15.18;7.75;;;;;;;0.89;100.00;101920.09;5286403;28;20052;-80
2022/02/13 00:12:00;;;;;;;18.50;5.93;;;;;;;0.80;100.00;101922.34;5286101;28;20030;-80
2022/02/13 00:14:31;;;;;;;21.65;6.95;;;;;;;0.69;100.00;101917.59;5285940;28;20047;-80
2022/02/13 00:17:02;;;;;;;17.73;6.68;;;;;;;0.84;100.00;101903.63;5272514;28;20057;-79
2022/02/13 00:19:32;;;;;;;17.77;6.20;;;;;;;0.80;100.00;101906.50;5267860;28;20103;-79
2022/02/13 00:22:03;;;;;;;17.60;6.32;;;;;;;0.73;100.00;101904.16;5281845;28;20058;-80
2022/02/13 00:24:33;;;;;;;15.18;5.22;;;;;;;0.76;100.00;101893.47;5262134;28;20023;-79
2022/02/13 00:27:04;;;;;;;20.15;6.82;;;;;;;0.76;100.00;101893.47;5286128;28;20094;-80
2022/02/13 00:29:35;;;;;;;15.50;5.97;;;;;;;0.78;100.00;101880.16;5268299;28;20020;-80
2022/02/13 00:32:06;;;;;;;14.60;6.30;;;;;;;0.76;100.00;101882.88;5285510;28;20065;-79
2022/02/13 00:34:36;;;;;;;15.00;7.82;;;;;;;0.88;100.00;101875.25;5286444;28;20034;-80
2022/02/13 00:37:07;;;;;;;13.10;5.55;;;;;;;0.84;100.00;101874.56;5286801;28;20031;-79
2022/02/13 00:39:37;;;;;;;13.60;5.68;;;;;;;0.86;100.00;101866.56;5286477;28;20023;-78
2022/02/13 00:42:08;;;;;;;18.80;5.65;;;;;;;0.79;100.00;101871.28;5268182;28;20045;-81
2022/02/13 00:44:38;;;;;;;13.05;5.55;;;;;;;0.70;100.00;101867.34;5286353;28;20298;-80
2022/02/13 00:47:09;;;;;;;22.50;5.75;;;;;;;0.65;100.00;101865.84;5251207;28;20032;-80
2022/02/13 00:49:39;;;;;;;18.80;5.88;;;;;;;0.60;100.00;101862.59;5286425;28;20031;-80
2022/02/13 00:52:10;;;;;;;17.15;5.75;;;;;;;0.58;100.00;101854.75;5286234;28;20028;-80
2022/02/13 00:54:40;;;;;;;16.00;6.22;;;;;;;0.68;100.00;101845.44;5250979;28;20023;-80
2022/02/13 00:57:11;;;;;;;17.38;5.80;;;;;;;0.65;100.00;101842.97;5268062;28;20111;-80
2022/02/13 00:59:41;;;;;;;25.13;6.32;;;;;;;0.63;100.00;101844.81;5268879;28;20023;-79
2022/02/13 01:02:11;;;;;;;17.05;5.78;;;;;;;0.69;100.00;101844.50;5251648;28;20034;-79
2022/02/13 01:04:42;;;;;;;17.75;5.43;;;;;;;0.73;100.00;101850.47;5268210;28;20089;-79
2022/02/13 01:07:12;;;;;;;16.73;5.95;;;;;;;0.69;100.00;101843.66;5285347;28;20027;-79
2022/02/13 01:09:43;;;;;;;17.35;5.38;;;;;;;0.63;100.00;101850.09;5285192;28;20394;-79
2022/02/13 01:12:13;;;;;;;22.60;6.07;;;;;;;0.55;100.00;101846.13;5272765;28;20125;-79
2022/02/13 01:14:44;;;;;;;14.65;5.78;;;;;;;0.57;100.00;101839.84;5289536;28;20020;-80
2022/02/13 01:17:14;;;;;;;11.90;5.95;;;;;;;0.47;100.00;101841.25;5258952;28;20020;-80
2022/02/13 01:19:45;;;;;;;17.08;6.13;;;;;;;0.49;100.00;101831.44;5287981;28;20036;-79
2022/02/13 01:22:15;;;;;;;15.07;5.80;;;;;;;0.35;100.00;101831.28;5282271;28;20045;-79
2022/02/13 01:24:46;;;;;;;20.90;5.70;;;;;;;0.32;100.00;101828.81;5284254;28;20028;-79
2022/02/13 01:27:16;;;;;;;13.63;5.68;;;;;;;0.36;100.00;101819.81;5289397;28;20020;-80
2022/02/13 01:29:47;;;;;;;17.52;6.13;;;;;;;0.26;100.00;101824.69;5269825;28;20088;-80
2022/02/13 01:32:17;;;;;;;16.08;6.13;;;;;;;0.11;100.00;101814.91;5288397;28;20093;-80
2022/02/13 01:34:48;;;;;;;14.13;5.35;;;;;;;0.11;100.00;101826.31;5269881;28;20026;-79
2022/02/13 01:37:18;;;;;;;18.73;6.57;;;;;;;0.14;100.00;101822.66;5267566;28;20036;-80
2022/02/13 01:39:49;;;;;;;16.30;6.70;;;;;;;0.07;100.00;101811.56;5268658;28;20029;-78
2022/02/13 01:42:19;;;;;;;19.45;5.75;;;;;;;0.05;100.00;101809.91;5285852;28;20133;-79
2022/02/13 01:44:52;;;;;;;15.60;5.90;;;;;;;0.14;100.00;101798.91;5291109;28;20081;-82
2022/02/13 01:47:23;;;;;;;16.40;5.57;;;;;;;0.20;100.00;101786.28;5288742;28;20027;-86
2022/02/13 01:49:54;;;;;;;16.77;5.78;;;;;;;0.17;100.00;101794.34;5272034;28;20024;-76
2022/02/13 01:52:25;;;;;;;18.65;6.20;;;;;;;0.24;100.00;101794.88;5288833;28;20030;-76
2022/02/13 01:54:56;;;;;;;13.18;6.10;;;;;;;0.20;100.00;101788.91;5288452;28;20019;-77
2022/02/13 01:57:26;;;;;;;14.20;5.28;;;;;;;0.28;100.00;101787.66;5288450;28;20030;-77
2022/02/13 01:59:57;;;;;;;12.15;5.97;;;;;;;0.38;100.00;101783.63;5288218;28;20304;-77
2022/02/13 02:02:27;;;;;;;16.85;6.80;;;;;;;0.42;100.00;101780.75;5288600;28;20027;-78
2022/02/13 02:04:58;;;;;;;17.20;6.53;;;;;;;0.41;100.00;101767.66;5269920;28;20024;-77
2022/02/13 02:07:29;;;;;;;22.38;6.32;;;;;;;0.42;100.00;101772.00;5288472;28;20096;-76
2022/02/13 02:10:00;;;;;;;16.88;5.53;;;;;;;0.41;100.00;101770.28;5287921;28;20110;-76
2022/02/13 02:12:32;;;;;;;15.48;5.07;;;;;;;0.36;100.00;101772.31;5288085;28;20342;-76
2022/02/13 02:15:04;;;;;;;14.68;5.50;;;;;;;0.25;100.00;101778.97;5283667;28;20384;-77
2022/02/13 02:17:34;;;;;;;10.57;5.05;;;;;;;0.31;100.00;101774.31;5278922;28;20467;-76
2022/02/13 02:20:06;;;;;;;15.90;6.18;;;;;;;0.29;100.00;101782.31;5288060;28;20015;-76
2022/02/13 02:22:57;;;;;;;16.67;6.00;;;;;;;0.27;100.00;101772.75;5263791;28;20030;-77
2022/02/13 02:25:27;;;;;;;16.70;6.05;;;;;;;0.25;100.00;101771.06;5288003;28;20035;-76
2022/02/13 02:28:12;;;;;;;16.67;5.83;;;;;;;0.31;100.00;101761.13;5288135;28;20122;-76
2022/02/13 02:30:43;;;;;;;13.40;5.63;;;;;;;0.32;100.00;101747.84;5287727;28;20106;-77
2022/02/13 02:33:13;;;;;;;14.77;5.88;;;;;;;0.27;100.00;101741.94;5274244;28;20127;-77
2022/02/13 02:35:43;;;;;;;16.75;6.10;;;;;;;0.29;100.00;101740.06;5287676;28;20019;-77
2022/02/13 02:38:14;;;;;;;11.35;5.25;;;;;;;0.30;100.00;101735.63;5287879;28;20039;-77
2022/02/13 02:40:46;;;;;;;14.90;5.10;;;;;;;0.23;100.00;101735.97;5287468;28;20008;-77
2022/02/13 02:43:16;;;;;;;14.23;5.82;;;;;;;0.25;100.00;101725.31;5287272;28;20084;-76
2022/02/13 02:45:47;;;;;;;18.38;6.30;;;;;;;0.20;100.00;101720.31;5287155;28;20031;-76
2022/02/13 02:48:21;;;;;;;19.57;5.37;;;;;;;0.07;100.00;101716.56;5287847;28;20030;-76
2022/02/13 02:50:58;;;;;;;14.27;6.00;;;;;;;0.08;100.00;101710.34;5287272;28;20847;-77
2022/02/13 02:53:29;;;;;;;14.38;5.50;;;;;;;0.20;100.00;101698.31;5286977;28;20110;-77
2022/02/13 02:56:00;;;;;;;14.45;6.43;;;;;;;0.29;100.00;101686.44;5286378;28;20342;-77
2022/02/13 02:58:31;;;;;;;14.20;5.22;;;;;;;0.28;100.00;101684.72;5287162;28;20107;-77
2022/02/13 03:01:02;;;;;;;12.43;5.30;;;;;;;0.38;100.00;101684.16;5287102;28;20363;-76
2022/02/13 03:03:33;;;;;;;14.25;5.88;;;;;;;0.36;100.00;101670.22;5287047;28;20110;-76
2022/02/13 03:06:04;;;;;;;21.50;5.80;;;;;;;0.36;100.00;101669.34;5286625;28;20494;-77
2022/02/13 03:08:35;;;;;;;17.02;4.93;;;;;;;0.42;100.00;101671.66;5268670;28;20019;-77
2022/02/13 03:11:06;;;;;;;13.70;5.38;;;;;;;0.39;100.00;101666.53;5286821;28;20024;-78
2022/02/13 03:13:36;;;;;;;14.30;5.50;;;;;;;0.43;100.00;101665.44;5287002;28;20226;-77
2022/02/13 03:16:08;;;;;;;13.75;5.40;;;;;;;0.44;100.00;101660.06;5273522;28;20028;-76
2022/02/13 03:18:39;;;;;;;12.88;5.18;;;;;;;0.42;100.00;101658.47;5286350;28;20024;-77
2022/02/13 03:21:11;;;;;;;16.40;4.97;;;;;;;0.43;100.00;101657.53;5286815;28;20023;-76
2022/02/13 03:23:42;;;;;;;17.85;5.57;;;;;;;0.41;100.00;101656.78;5277905;28;20074;-77
2022/02/13 03:26:12;;;;;;;14.05;5.55;;;;;;;0.37;100.00;101650.78;5286306;28;20023;-77
2022/02/13 03:28:42;;;;;;;16.20;5.40;;;;;;;0.35;100.00;101646.50;5286664;28;20114;-77
2022/02/13 03:31:13;;;;;;;14.32;4.90;;;;;;;0.43;100.00;101646.97;5285931;28;20051;-76
2022/02/13 03:33:43;;;;;;;16.55;6.05;;;;;;;0.45;100.00;101634.53;5286377;28;20078;-77
2022/02/13 03:36:14;;;;;;;17.73;5.55;;;;;;;0.38;100.00;101633.16;5268009;28;20088;-76
2022/02/13 03:38:45;;;;;;;24.55;6.53;;;;;;;0.35;100.00;101620.13;5286431;28;20545;-76
2022/02/13 03:41:15;;;;;;;13.02;5.75;;;;;;;0.29;100.00;101623.09;5286186;28;20019;-77
2022/02/13 03:43:46;;;;;;;10.82;5.53;;;;;;;0.30;100.00;101616.88;5285357;28;20034;-77
2022/02/13 03:46:16;;;;;;;14.27;5.60;;;;;;;0.22;100.00;101623.41;5286058;28;20181;-77
2022/02/13 03:48:47;;;;;;;15.38;5.63;;;;;;;0.24;100.00;101613.63;5268095;28;20114;-77
2022/02/13 03:51:18;;;;;;;15.57;5.88;;;;;;;0.30;100.00;101612.44;5285923;28;20027;-76
2022/02/13 03:53:48;;;;;;;15.55;5.40;;;;;;;0.28;100.00;101609.03;5285875;28;20054;-77
2022/02/13 03:56:19;;;;;;;10.80;6.00;;;;;;;0.31;100.00;101606.25;5285789;28;20030;-77
2022/02/13 03:58:49;;;;;;;18.33;5.15;;;;;;;0.22;100.00;101610.22;5286123;28;20020;-76
2022/02/13 04:01:20;;;;;;;14.15;4.63;;;;;;;0.19;100.00;101613.00;5286161;28;20015;-76
2022/02/13 04:03:50;;;;;;;11.43;4.95;;;;;;;0.10;100.00;101610.00;5285874;28;20031;-77
2022/02/13 04:06:21;;;;;;;14.82;5.05;;;;;;;0.08;100.00;101603.97;5285046;28;20042;-77
2022/02/13 04:08:51;;;;;;;13.27;5.10;;;;;;;0.09;100.00;101609.16;5285745;28;20077;-76
2022/02/13 04:11:22;;;;;;;11.40;4.97;;;;;;;0.15;100.00;101605.34;5267422;28;20057;-77
2022/02/13 04:13:52;;;;;;;12.73;4.72;;;;;;;0.11;100.00;101609.09;5285890;28;20165;-76
2022/02/13 04:16:23;;;;;;;11.93;4.97;;;;;;;0.10;100.00;101610.00;5272396;28;20501;-77
2022/02/13 04:18:53;;;;;;;19.48;5.63;;;;;;;0.05;100.00;101604.13;5286813;28;20107;-77
2022/02/13 04:21:24;;;;;;;16.58;5.55;;;;;;;-0.03;100.00;101601.88;5285322;28;20065;-76
2022/02/13 04:23:54;;;;;;;15.23;6.15;;;;;;;-0.07;100.00;101589.78;5276644;28;20039;-76
2022/02/13 04:26:25;;;;;;;13.73;5.65;;;;;;;-0.09;100.00;101597.78;5285572;28;20019;-76
2022/02/13 04:28:55;;;;;;;14.15;5.95;;;;;;;-0.08;100.00;101594.22;5285402;28;20035;-76
2022/02/13 04:31:26;;;;;;;14.43;6.13;;;;;;;0.15;100.00;101594.78;5285325;28;20380;-76
2022/02/13 04:33:56;;;;;;;19.95;6.75;;;;;;;0.19;100.00;101591.06;5285187;28;20019;-77
2022/02/13 04:36:27;;;;;;;15.77;5.43;;;;;;;0.28;100.00;101589.72;5285666;28;20019;-77
2022/02/13 04:38:57;;;;;;;16.48;5.97;;;;;;;0.26;100.00;101587.16;5285225;28;20541;-77
2022/02/13 04:41:28;;;;;;;14.85;5.75;;;;;;;0.34;100.00;101589.38;5285240;28;20024;-77
2022/02/13 04:43:58;;;;;;;14.05;4.95;;;;;;;0.39;100.00;101580.28;5284945;28;20336;-76
2022/02/13 04:46:29;;;;;;;16.33;6.10;;;;;;;0.44;100.00;101574.75;5284953;28;20099;-76
2022/02/13 04:49:00;;;;;;;13.70;6.18;;;;;;;0.43;100.00;101580.97;5285226;28;20365;-77
2022/02/13 04:51:31;;;;;;;12.30;5.20;;;;;;;0.47;100.00;101578.09;5266728;28;20016;-77
2022/02/13 04:54:02;;;;;;;16.15;5.80;;;;;;;0.46;100.00;101573.75;5285585;28;20028;-76
2022/02/13 04:56:32;;;;;;;13.52;5.60;;;;;;;0.48;100.00;101571.84;5284752;28;20490;-77
2022/02/13 04:59:03;;;;;;;13.25;5.65;;;;;;;0.44;100.00;101564.19;5285256;28;20034;-76
2022/02/13 05:01:33;;;;;;;13.45;6.28;;;;;;;0.38;100.00;101560.09;5285504;28;20016;-76
2022/02/13 05:04:04;;;;;;;12.80;5.30;;;;;;;0.45;100.00;101558.84;5285266;28;20027;-77
2022/02/13 05:06:35;;;;;;;16.08;6.18;;;;;;;0.62;100.00;101554.41;5284858;28;20080;-77
2022/02/13 05:09:06;;;;;;;14.88;5.90;;;;;;;0.55;100.00;101548.59;5285245;28;20028;-77
2022/02/13 05:11:36;;;;;;;14.15;5.85;;;;;;;0.54;100.00;101549.53;5285084;28;20081;-76
2022/02/13 05:14:07;;;;;;;19.30;5.38;;;;;;;0.52;100.00;101549.63;5285031;28;20092;-76
2022/02/13 05:16:37;;;;;;;14.55;5.88;;;;;;;0.50;100.00;101540.97;5270971;28;20024;-77
2022/02/13 05:19:08;;;;;;;15.07;5.40;;;;;;;0.61;100.00;101537.72;5288297;28;20024;-77
2022/02/13 05:21:39;;;;;;;15.63;5.82;;;;;;;0.61;100.00;101528.97;5287935;28;20020;-76
2022/02/13 05:24:10;;;;;;;12.88;5.68;;;;;;;0.60;100.00;101530.72;5280465;28;20028;-76
2022/02/13 05:26:40;;;;;;;12.65;5.05;;;;;;;0.60;100.00;101533.34;5289075;28;20107;-76
2022/02/13 05:29:11;;;;;;;9.75;5.13;;;;;;;0.56;100.00;101531.00;5288950;28;20030;-76
2022/02/13 05:31:41;;;;;;;16.60;5.85;;;;;;;0.58;100.00;101522.03;5289341;28;20045;-77
2022/02/13 05:34:15;;;;;;;15.13;5.90;;;;;;;0.59;100.00;101512.31;5288504;28;20035;-77
2022/02/13 05:36:46;;;;;;;11.32;5.05;;;;;;;0.56;100.00;101505.44;5288922;28;20053;-77
2022/02/13 05:39:16;;;;;;;15.15;5.68;;;;;;;0.54;100.00;101502.03;5288783;28;20425;-77
2022/02/13 05:41:46;;;;;;;12.85;5.47;;;;;;;0.54;100.00;101494.09;5288468;28;20073;-77
2022/02/13 05:44:17;;;;;;;14.45;6.40;;;;;;;0.56;100.00;101488.75;5288279;28;20053;-77
2022/02/13 05:46:47;;;;;;;15.70;5.90;;;;;;;0.52;100.00;101493.34;5288344;28;20023;-77
2022/02/13 05:49:18;;;;;;;10.60;5.40;;;;;;;0.58;100.00;101482.44;5288446;28;20114;-77
2022/02/13 05:51:48;;;;;;;14.82;6.35;;;;;;;0.53;100.00;101473.91;5288660;28;20027;-77
2022/02/13 05:54:19;;;;;;;21.40;5.97;;;;;;;0.69;100.00;101468.63;5288422;28;20027;-78
2022/02/13 05:56:49;;;;;;;15.70;5.78;;;;;;;0.62;100.00;101470.75;5288982;28;20098;-80
2022/02/13 05:59:20;;;;;;;15.35;5.60;;;;;;;0.68;100.00;101465.13;5271490;28;20551;-76
2022/02/13 06:01:53;;;;;;;10.20;5.15;;;;;;;0.68;100.00;101462.50;5292314;28;20076;-82
2022/02/13 06:04:24;;;;;;;16.25;6.25;;;;;;;0.60;100.00;101458.56;5299227;28;20228;-80
2022/02/13 06:06:55;;;;;;;15.48;5.45;;;;;;;0.62;100.00;101440.88;5284252;28;20030;-81
2022/02/13 06:09:26;;;;;;;12.52;5.25;;;;;;;0.70;100.00;101452.69;5258101;28;20497;-77
2022/02/13 06:11:56;;;;;;;15.38;5.55;;;;;;;0.68;100.00;101454.56;5288786;28;20084;-80
2022/02/13 06:14:27;;;;;;;12.02;6.07;;;;;;;0.68;100.00;101451.91;5290181;28;20054;-80
2022/02/13 06:16:57;;;;;;;15.75;6.07;;;;;;;0.77;100.00;101454.03;5275790;28;20032;-85
2022/02/13 06:19:28;;;;;;;9.93;5.05;;;;;;;0.75;100.00;101450.66;5273572;28;20034;-82
2022/02/13 06:21:58;;;;;;;12.68;5.78;;;;;;;0.71;100.00;101450.91;5289911;28;20498;-80
2022/02/13 06:24:29;;;;;;;11.05;4.45;;;;;;;0.74;100.00;101446.28;5269756;28;20023;-80
2022/02/13 06:26:59;;;;;;;12.95;5.72;;;;;;;0.74;100.00;101433.06;5294956;28;20016;-81
2022/02/13 06:29:29;;;;;;;9.77;4.75;;;;;;;0.81;100.00;101430.94;5274070;28;20027;-79
2022/02/13 06:32:01;;;;;;;13.55;5.22;;;;;;;0.88;100.00;101426.16;5292501;28;20030;-78
2022/02/13 06:34:31;;;;;;;15.30;5.38;;;;;;;0.94;100.00;101420.50;5290184;28;20145;-78
2022/02/13 06:37:02;;;;;;;10.82;5.00;;;;;;;0.93;100.00;101421.44;5272877;28;20432;-80
2022/02/13 06:39:34;;;;;;;10.55;5.65;;;;;;;0.91;100.00;101431.28;5273462;28;20038;-82
2022/02/13 06:42:05;;;;;;;10.60;4.88;;;;;;;0.94;100.00;101431.91;5255947;28;20011;-79
2022/02/13 06:44:35;;;;;;;11.40;4.82;;;;;;;0.93;100.00;101424.09;5269164;28;20077;-78
2022/02/13 06:47:06;;;;;;;13.05;5.05;;;;;;;0.89;100.00;101418.13;5286620;28;20576;-79
2022/02/13 06:49:36;;;;;;;13.38;5.68;;;;;;;0.91;100.00;101410.13;5288512;28;20367;-78
2022/02/13 06:52:07;;;;;;;10.50;4.68;;;;;;;0.92;100.00;101415.31;5287682;28;20024;-78
2022/02/13 06:54:38;;;;;;;14.80;5.47;;;;;;;0.92;100.00;101415.31;5289176;28;20534;-77
2022/02/13 06:57:08;;;;;;;13.55;5.60;;;;;;;0.94;100.00;101416.06;5287541;28;20035;-77
2022/02/13 06:59:41;;;;;;;14.15;5.30;;;;;;;0.87;100.00;101403.31;5268929;28;20035;-77
2022/02/13 07:02:12;;;;;;;11.13;5.30;;;;;;;0.84;100.00;101400.84;5287094;28;20106;-78
2022/02/13 07:04:43;;;;;;;12.48;4.43;;;;;;;0.85;100.00;101405.19;5286005;28;20023;-79
2022/02/13 07:07:13;;;;;;;9.73;4.97;;;;;;;0.81;100.00;101401.91;5286538;28;20121;-79
2022/02/13 07:09:43;;;;;;;11.88;4.68;;;;;;;0.88;100.00;101399.72;5268714;28;20028;-79
2022/02/13 07:12:14;;;;;;;8.88;4.53;;;;;;;0.88;100.00;101408.50;5285917;28;20039;-79
2022/02/13 07:14:46;;;;;;;12.45;5.65;;;;;;;0.99;100.00;101402.59;5266968;28;20060;-79
2022/02/13 07:17:17;;;;;;;11.35;4.95;;;;;;;1.08;100.00;101409.97;5263834;28;20027;-79
2022/02/13 07:19:47;;;;;;;12.32;5.20;;;;;;;1.10;100.00;101410.72;5268731;28;20555;-79
2022/02/13 07:22:18;;;;;;;11.23;5.25;;;;;;;1.11;100.00;101407.16;5282038;28;20038;-77
2022/02/13 07:24:48;;;;;;;11.63;4.60;;;;;;;1.25;100.00;101415.06;5288764;28;20140;-77
2022/02/13 07:27:19;;;;;;;11.23;5.28;;;;;;;1.37;100.00;101408.22;5269749;28;20035;-78
2022/02/13 07:29:49;;;;;;;9.85;4.68;;;;;;;1.41;100.00;101407.09;5269480;28;20024;-77
2022/02/13 07:32:20;;;;;;;9.55;4.93;;;;;;;1.45;100.00;101410.38;5286857;28;20047;-77
2022/02/13 07:34:51;;;;;;;15.25;4.63;;;;;;;1.49;100.00;101411.91;5286330;28;20035;-77
2022/02/13 07:37:21;;;;;;;9.57;4.80;;;;;;;1.56;100.00;101415.88;5268849;28;20073;-77
2022/02/13 07:39:51;;;;;;;12.20;4.70;;;;;;;1.65;100.00;101417.09;5287827;28;20023;-77
2022/02/13 07:42:22;;;;;;;9.90;4.63;;;;;;;1.72;100.00;101419.28;5286511;28;20106;-78
2022/02/13 07:44:52;;;;;;;10.82;5.43;;;;;;;1.84;100.00;101416.81;5285195;28;20055;-77
2022/02/13 07:47:24;;;;;;;8.20;4.30;;;;;;;1.94;100.00;101417.91;5267005;28;20024;-77
2022/02/13 07:49:54;;;;;;;8.95;4.75;;;;;;;1.95;100.00;101416.97;5288186;28;20053;-78
2022/02/13 07:52:25;;;;;;;10.52;4.68;;;;;;;2.02;100.00;101413.84;5288166;28;20028;-78
2022/02/13 07:54:55;;;;;;;11.70;4.97;;;;;;;2.10;100.00;101410.69;5289099;28;20020;-78
2022/02/13 07:57:28;;;;;;;10.75;4.90;;;;;;;2.20;100.00;101414.44;5270382;28;20027;-78
2022/02/13 07:59:59;;;;;;;12.13;5.20;;;;;;;2.33;100.00;101409.22;5289349;28;20116;-78
2022/02/13 08:02:29;;;;;;;14.48;5.65;;;;;;;2.45;100.00;101399.63;5250527;28;20050;-78
2022/02/13 08:05:00;;;;;;;11.98;5.38;;;;;;;2.56;100.00;101408.59;5284026;28;20026;-77
2022/02/13 08:07:31;;;;;;;8.00;4.68;;;;;;;2.59;100.00;101400.41;5271278;28;20031;-78
2022/02/13 08:10:01;;;;;;;11.00;4.82;;;;;;;2.69;100.00;101384.75;5288358;28;20031;-78
2022/02/13 08:12:32;;;;;;;10.23;5.38;;;;;;;2.74;100.00;101387.97;5285810;28;20407;-78
2022/02/13 08:15:03;;;;;;;14.85;5.47;;;;;;;2.77;100.00;101389.56;5282883;28;20024;-79
2022/02/13 08:17:33;;;;;;;13.20;5.18;;;;;;;2.80;100.00;101387.53;5279376;28;20374;-81
2022/02/13 08:20:07;;;;;;;14.02;5.32;;;;;;;2.76;100.00;101390.50;5289267;28;20019;-79
2022/02/13 08:22:38;;;;;;;8.55;4.22;;;;;;;2.73;100.00;101388.91;5284251;28;20486;-79
2022/02/13 08:25:09;;;;;;;9.82;4.97;;;;;;;2.78;100.00;101385.97;5286063;28;20016;-79
2022/02/13 08:27:40;;;;;;;9.20;4.47;;;;;;;2.87;100.00;101384.50;5270829;28;20031;-80
2022/02/13 08:30:11;;;;;;;9.50;4.60;;;;;;;2.92;100.00;101382.38;5288362;28;20099;-80
2022/02/13 08:32:41;;;;;;;11.65;5.10;;;;;;;3.05;100.00;101383.22;5285333;28;20072;-78
2022/02/13 08:35:12;;;;;;;9.68;4.47;;;;;;;3.24;100.00;101383.66;5284888;28;20501;-77
2022/02/13 08:37:42;;;;;;;18.60;4.88;;;;;;;3.52;100.00;101385.25;5267897;28;20028;-79
2022/02/13 08:40:13;;;;;;;10.18;4.82;;;;;;;3.80;100.00;101386.78;5285405;28;20069;-80
2022/02/13 08:42:43;;;;;;;13.68;5.40;;;;;;;4.05;100.00;101379.72;5284566;28;20031;-79
2022/02/13 08:45:14;;;;;;;10.45;4.90;;;;;;;4.33;100.00;101381.22;5287187;28;20688;-81
2022/02/13 08:47:45;;;;;;;9.07;4.93;;;;;;;4.58;100.00;101373.13;5291132;28;20035;-82
2022/02/13 08:50:15;;;;;;;8.02;4.20;;;;;;;4.94;100.00;101373.97;5291956;28;20031;-81
2022/02/13 08:52:46;;;;;;;8.55;4.32;;;;;;;4.99;100.00;101373.63;5291680;28;20104;-80
2022/02/13 08:55:17;;;;;;;8.82;4.68;;;;;;;5.26;100.00;101375.97;5296243;28;20054;-82
2022/02/13 08:57:48;;;;;;;12.23;4.50;;;;;;;5.25;100.00;101366.28;5295599;28;20405;-81
2022/02/13 09:00:19;;;;;;;11.32;5.13;;;;;;;5.23;100.00;101361.09;5278247;28;20054;-80
2022/02/13 09:02:50;;;;;;;9.35;4.78;;;;;;;5.54;100.00;101351.56;5278491;28;20088;-82
2022/02/13 09:05:20;;;;;;;8.43;4.57;;;;;;;5.42;100.00;101348.06;5259229;28;20031;-81
2022/02/13 09:07:50;;;;;;;9.18;4.90;;;;;;;5.75;100.00;101338.34;5274488;28;20357;-80
2022/02/13 09:10:21;;;;;;;10.50;4.80;;;;;;;6.14;100.00;101339.63;5292572;28;20146;-81
2022/02/13 09:12:52;;;;;;;11.07;5.18;;;;;;;6.58;100.00;101326.28;5271576;28;20027;-80
2022/02/13 09:15:22;;;;;;;8.18;4.65;;;;;;;6.47;100.00;101320.00;5282361;28;20103;-79
2022/02/13 09:17:53;;;;;;;11.90;4.82;;;;;;;6.77;100.00;101323.72;5282711;28;20027;-79
2022/02/13 09:20:24;;;;;;;10.90;4.22;;;;;;;6.87;100.00;101321.13;5270870;28;20180;-80
2022/02/13 09:22:54;;;;;;;9.02;4.95;;;;;;;6.98;100.00;101316.56;5280998;28;20138;-81
2022/02/13 09:25:25;;;;;;;10.00;4.80;;;;;;;6.38;100.00;101307.47;5292440;28;20049;-81
2022/02/13 09:27:55;;;;;;;11.82;4.20;;;;;;;6.12;100.00;101309.59;5274982;28;20100;-81
2022/02/13 09:30:26;;;;;;;8.20;4.70;;;;;;;6.08;100.00;101304.66;5293425;28;20019;-81
2022/02/13 09:32:56;;;;;;;11.90;4.18;;;;;;;6.24;100.00;101289.09;5293573;28;20167;-81
2022/02/13 09:35:27;;;;;;;8.00;4.22;;;;;;;6.69;100.00;101302.22;5275088;28;20028;-81
2022/02/13 09:37:57;;;;;;;8.93;5.15;;;;;;;6.18;100.00;101294.94;5294988;28;20134;-81
2022/02/13 09:40:33;;;;;;;9.70;4.78;;;;;;;6.55;100.00;101300.69;5294964;28;20728;-82
2022/02/13 09:43:03;;;;;;;;;;;;;;;6.80;100.00;101285.28;5262585;28;20214;-81
2022/02/13 09:45:34;;;;;;;11.00;5.30;;;;;;;6.74;100.00;101287.50;5292188;28;20016;-80
2022/02/13 09:48:05;;;;;;;13.27;4.13;;;;;;;6.85;100.00;101275.06;5274847;28;20043;-80
2022/02/13 09:50:36;;;;;;;11.27;4.85;;;;;;;7.31;100.00;101274.59;5274197;28;20031;-81
2022/02/13 09:53:07;;;;;;;6.78;4.00;;;;;;;7.42;100.00;101266.47;5293854;28;20024;-80
2022/02/13 09:55:37;;;;;;;10.57;4.47;;;;;;;7.52;100.00;101266.50;5275194;28;20708;-80
2022/02/13 09:58:08;;;;;;;11.85;4.95;;;;;;;7.37;100.00;101257.19;5258328;28;20514;-81
2022/02/13 10:00:49;;;;;;;7.72;4.65;;;;;;;7.24;100.00;101255.63;5292222;28;20020;-80
2022/02/13 10:03:40;;;;;;;7.15;4.28;;;;;;;7.06;100.00;101259.88;5273646;28;20053;-81
2022/02/13 10:06:11;;;;;;;9.10;4.22;;;;;;;7.25;100.00;101251.13;5291619;28;20028;-81
2022/02/13 10:08:44;;;;;;;9.15;4.60;;;;;;;7.11;100.00;101249.66;5292338;28;20038;-81
2022/02/13 10:11:17;;;;;;;8.50;4.53;;;;;;;7.36;100.00;101236.81;5291648;28;20089;-80
2022/02/13 10:13:51;;;;;;;11.75;5.63;;;;;;;7.50;100.00;101242.63;5292150;28;20015;-81
2022/02/13 10:16:27;;;;;;;13.77;6.28;;;;;;;7.58;100.00;101251.75;5270502;28;20461;-81
2022/02/13 10:19:02;;;;;;;18.23;4.95;;;;;;;7.46;100.00;101241.19;5300276;28;20035;-81
2022/02/13 10:21:35;;;;;;;10.07;4.90;;;;;;;7.67;100.00;101249.13;5274317;28;20414;-81
2022/02/13 10:24:15;;;;;;;8.50;4.22;;;;;;;7.86;100.00;101239.44;5265698;28;20027;-80
2022/02/13 10:26:51;;;;;;;8.82;4.60;;;;;;;7.79;100.00;101245.34;5273972;28;20032;-81
2022/02/13 10:29:27;;;;;;;10.75;4.97;;;;;;;7.83;100.00;101237.91;5273752;28;20497;-81
2022/02/13 10:32:11;;;;;;;8.50;3.85;;;;;;;7.65;100.00;101234.22;5291839;28;20032;-80
2022/02/13 10:34:57;;;;;;;9.55;4.55;;;;;;;7.39;100.00;101225.88;5291665;28;20390;-81
2022/02/13 10:38:02;;;;;;;14.05;4.78;;;;;;;7.39;100.00;101218.72;5273133;28;20042;-80
2022/02/13 10:40:32;;;;;;;10.38;4.38;;;;;;;7.72;100.00;101217.50;5290702;28;20494;-82
2022/02/13 10:43:07;;;;;;;9.23;4.20;;;;;;;7.63;100.00;101209.47;5289734;28;20038;-81
2022/02/13 10:45:40;;;;;;;12.60;5.20;;;;;;;7.79;100.00;101199.09;5272312;28;20027;-80
2022/02/13 10:48:11;;;;;;;8.30;4.43;;;;;;;7.51;100.00;101196.25;5290303;28;20034;-81
2022/02/13 10:50:42;;;;;;;7.22;4.10;;;;;;;7.59;100.00;101176.88;5290678;28;20048;-79
2022/02/13 10:53:12;;;;;;;9.27;4.57;;;;;;;7.76;100.00;101178.00;5273481;28;20043;-80
2022/02/13 10:55:45;;;;;;;13.25;5.18;;;;;;;7.90;100.00;101169.59;5270100;28;20139;-81
2022/02/13 10:58:16;;;;;;;9.43;4.80;;;;;;;8.07;100.00;101169.84;5289059;28;20020;-80
2022/02/13 11:00:47;;;;;;;9.43;4.97;;;;;;;8.16;100.00;101172.50;5270561;28;20114;-79
2022/02/13 11:03:19;;;;;;;8.35;4.60;;;;;;;8.22;100.00;101168.41;5288072;28;20027;-80
2022/02/13 11:05:51;;;;;;;8.57;4.50;;;;;;;8.30;100.00;101156.03;5288182;28;20031;-79
2022/02/13 11:08:24;;;;;;;8.70;3.83;;;;;;;8.12;100.00;101154.22;5270452;28;20026;-80
2022/02/13 11:10:56;;;;;;;8.15;3.97;;;;;;;8.21;100.00;101146.19;5291073;28;20011;-81
2022/02/13 11:13:30;;;;;;;9.65;4.43;;;;;;;8.18;100.00;101145.63;5287601;28;20663;-81
2022/02/13 11:16:01;;;;;;;8.85;4.03;;;;;;;8.20;100.00;101138.34;5285672;28;20077;-81
2022/02/13 11:18:33;;;;;;;9.43;4.43;;;;;;;8.50;100.00;101123.94;5257347;28;20593;-81
2022/02/13 11:21:03;;;;;;;10.57;3.95;;;;;;;8.79;100.00;101115.81;5285951;28;20069;-81
2022/02/13 11:23:35;;;;;;;7.63;3.70;;;;;;;8.87;100.00;101110.53;5267648;28;20028;-80
2022/02/13 11:26:07;;;;;;;9.20;3.70;;;;;;;8.80;100.00;101104.09;5267729;28;20076;-80
2022/02/13 11:28:57;;;;;;;9.10;4.40;;;;;;;8.97;100.00;101105.13;5268279;28;20027;-81
2022/02/13 11:31:28;;;;;;;8.95;4.10;;;;;;;9.16;100.00;101106.84;5268877;28;20465;-83
2022/02/13 11:33:59;;;;;;;8.02;3.90;;;;;;;9.34;100.00;101097.03;5288643;28;20032;-80
2022/02/13 11:36:50;;;;;;;7.90;3.70;;;;;;;9.32;100.00;101090.94;5290590;28;20020;-80
2022/02/13 11:39:31;;;;;;;5.55;3.08;;;;;;;9.50;100.00;101072.22;5291012;28;20084;-80